Athlestan, Iowa
Current Conditions -  °F | °C
As of 9:55 PM on Saturday 24 Jan 2015 (Local Time) from KCSQ Reporting Station
Overcast Overcast  
Wind Chill: 39°   Ceiling: 6000
Heat Index: 43°   Visibility: 10mi
Dew Point: 34°   Wind: 7mph
Humidity: 70%   Direction: 230°SW
Pressure: 29.6"   Gusts: NA
Location:  40.6485°N, 94.5286°W
Report Text: KCSQ 250355Z AUTO 23006KT 10SM FEW037 BKN060 OVC090 06/01 A2960 RMK AO2
Loading
Personal Weather Stations






























Interactive Weather Map New forecast layout! Learn more

10-Day Weather Forecast

Advertisements
Track Severe Weather on mobile